»·PEaware :: N4QS KLNK-KGJT

N4QS :: KLNK-KGJT

FLIGHT INFORMATION

Flight Status: Arrived
Operator: Privately registered:
United States
More flights under this callsign
Pilot: Anonymous 36068 (36068)
Aircraft: BEECH AIRCRAFT PREMIER
(PRM1)
More flights by this aircraft type
Origin: KLNK Lincoln Mun
United States
Destination: KGJT Grand Junction Regl
United States
More flights between these airports :: More routes between these airports
Route: LNK J60 HCT GLENO
File this flight plan on PilotEdge
Remarks:
Altitude:
(Current/Filed)
36,000ft
Speed:
(Current/Filed)
400kts
Departed: 23-Oct-21 07:28 AM
Arrived: 23-Oct-21 09:00 AM
Distance/Time
Traveled:
550nm/1:31
Distance/Time
To Go:
Arrived

Flight Plot

Page will automatically refresh every two minutes.

Flight plan parsing failed; only flown route is shown


Map Options




Map Legend


Flown Route
Filed Route
Departure Airport
Arrival Airport
Navaid (VOR, NDB)
Fix

Horizontal Profiles

Position Reports

Time Latitude Longitude Heading Altitude Ground
Speed
23-Oct-21 07:26 40.833501 -97.666534 262 35944ft 413kts
23-Oct-21 07:27 40.818186 -97.816028 262 35944ft 411kts
23-Oct-21 07:28 40.802710 -97.965126 262 35944ft 410kts
23-Oct-21 07:29 40.787063 -98.113964 262 35945ft 409kts
23-Oct-21 07:30 40.771265 -98.262352 262 35945ft 408kts
23-Oct-21 07:31 40.755301 -98.410413 262 35945ft 408kts
23-Oct-21 07:32 40.739114 -98.558682 262 35945ft 408kts
23-Oct-21 07:33 40.722805 -98.706254 261 35945ft 408kts
23-Oct-21 07:34 40.706241 -98.854405 261 35945ft 408kts
23-Oct-21 07:35 40.689575 -99.001655 261 35945ft 408kts
23-Oct-21 07:37 40.672673 -99.149265 261 35945ft 408kts
23-Oct-21 07:38 40.655568 -99.296925 261 35945ft 408kts
23-Oct-21 07:39 40.638266 -99.444582 261 35945ft 408kts
23-Oct-21 07:40 40.620813 -99.591856 261 35945ft 408kts
23-Oct-21 07:41 40.603155 -99.739211 260 35945ft 408kts
23-Oct-21 07:42 40.585229 -99.887139 260 35945ft 408kts
23-Oct-21 07:43 40.567221 -100.034131 260 35945ft 408kts
23-Oct-21 07:44 40.548986 -100.181362 260 35945ft 408kts
23-Oct-21 07:45 40.530522 -100.328849 260 35945ft 409kts
23-Oct-21 07:46 40.511896 -100.476062 260 35945ft 409kts
23-Oct-21 07:47 40.493050 -100.623441 260 35945ft 409kts
23-Oct-21 07:48 40.474058 -100.770428 260 35945ft 409kts
23-Oct-21 07:49 40.454875 -100.917187 259 35945ft 409kts
23-Oct-21 07:50 40.434124 -101.063884 259 35945ft 409kts
23-Oct-21 07:51 40.413122 -101.210328 259 35945ft 409kts
23-Oct-21 07:52 40.391863 -101.357172 259 35945ft 409kts
23-Oct-21 07:53 40.370444 -101.503758 259 35945ft 409kts
23-Oct-21 07:54 40.348892 -101.649895 259 35945ft 409kts
23-Oct-21 07:55 40.327077 -101.796459 258 35945ft 409kts
23-Oct-21 07:56 40.305127 -101.942610 258 35945ft 410kts
23-Oct-21 07:57 40.282959 -102.088886 258 35945ft 410kts
23-Oct-21 07:58 40.260688 -102.234538 258 35945ft 410kts
23-Oct-21 07:59 40.238153 -102.380619 258 35945ft 410kts
23-Oct-21 08:00 40.215467 -102.526402 258 35945ft 410kts
23-Oct-21 08:01 40.192522 -102.672565 258 35945ft 410kts
23-Oct-21 08:02 40.169386 -102.818663 258 35945ft 410kts
23-Oct-21 08:02 40.150013 -102.940047 258 35945ft 410kts
23-Oct-21 08:04 40.122662 -103.109976 258 35945ft 410kts
23-Oct-21 08:05 40.098962 -103.255877 258 35945ft 411kts
23-Oct-21 08:06 40.075105 -103.401518 258 35945ft 411kts
23-Oct-21 08:06 40.055118 -103.522609 258 35945ft 411kts
23-Oct-21 08:07 40.030853 -103.668506 257 35945ft 411kts
23-Oct-21 08:09 40.002361 -103.838288 257 35945ft 411kts
23-Oct-21 08:10 39.977733 -103.983771 257 35945ft 411kts
23-Oct-21 08:10 39.957088 -104.104822 257 35945ft 411kts
23-Oct-21 08:11 39.932105 -104.250244 257 35945ft 411kts
23-Oct-21 08:12 39.907068 -104.394822 257 35945ft 411kts
23-Oct-21 08:14 39.877449 -104.564388 257 35945ft 412kts
23-Oct-21 08:14 39.856155 -104.685351 256 35945ft 412kts
23-Oct-21 08:15 39.830435 -104.830418 256 35945ft 412kts
23-Oct-21 08:16 39.804621 -104.974886 256 35945ft 412kts
23-Oct-21 08:17 39.778529 -105.119794 256 35945ft 412kts
23-Oct-21 08:18 39.752300 -105.264353 256 35945ft 412kts
23-Oct-21 08:19 39.725820 -105.409190 256 35945ft 412kts
23-Oct-21 08:20 39.699188 -105.553773 256 35945ft 412kts
23-Oct-21 08:21 39.672364 -105.698311 256 35945ft 412kts
23-Oct-21 08:22 39.645433 -105.842355 256 35945ft 412kts
23-Oct-21 08:23 39.618213 -105.986876 256 35945ft 412kts
23-Oct-21 08:24 39.590847 -106.131106 256 35945ft 412kts
23-Oct-21 08:25 39.563316 -106.275150 256 35945ft 412kts
23-Oct-21 08:26 39.535312 -106.420611 256 35009ft 425kts
23-Oct-21 08:27 39.506437 -106.569496 256 33026ft 428kts
23-Oct-21 08:28 39.477496 -106.717632 255 31024ft 422kts
23-Oct-21 08:29 39.448834 -106.863275 255 29022ft 414kts
23-Oct-21 08:30 39.420517 -107.006152 255 27022ft 407kts
23-Oct-21 08:31 39.392469 -107.146698 255 25022ft 401kts
23-Oct-21 08:32 39.364743 -107.284698 255 23027ft 395kts
23-Oct-21 08:33 39.337591 -107.419046 255 21818ft 370kts
23-Oct-21 08:34 39.311380 -107.548853 256 19803ft 376kts
23-Oct-21 08:35 39.285647 -107.679345 255 17807ft 375kts
23-Oct-21 08:36 39.260017 -107.808586 255 15812ft 371kts
23-Oct-21 08:37 39.234763 -107.935141 255 15000ft 360kts
23-Oct-21 08:38 39.209563 -108.060196 254 14999ft 359kts
23-Oct-21 08:39 39.181018 -108.182969 253 14870ft 362kts
23-Oct-21 08:40 39.152397 -108.305289 253 13872ft 350kts
23-Oct-21 08:41 39.124537 -108.423740 253 12868ft 342kts
23-Oct-21 08:42 39.097059 -108.539983 253 12013ft 333kts
23-Oct-21 08:43 39.070178 -108.653140 252 11789ft 325kts
23-Oct-21 08:44 39.044833 -108.759329 252 10768ft 300kts
23-Oct-21 08:45 39.020666 -108.860145 252 10009ft 296kts
23-Oct-21 08:46 38.996202 -108.961765 252 9998ft 292kts
23-Oct-21 08:47 38.992465 -109.052049 310 9620ft 251kts
23-Oct-21 08:48 39.057174 -109.078283 359 8646ft 259kts
23-Oct-21 08:49 39.127245 -109.064761 17 8198ft 246kts
23-Oct-21 08:50 39.187281 -109.026353 35 8200ft 241kts
23-Oct-21 08:51 39.234639 -108.968203 52 8200ft 234kts
23-Oct-21 08:52 39.266595 -108.895312 68 8200ft 234kts
23-Oct-21 08:53 39.268819 -108.813616 113 7567ft 225kts
23-Oct-21 08:54 39.240301 -108.748957 115 6703ft 186kts
23-Oct-21 08:55 39.216275 -108.692887 124 6695ft 180kts
23-Oct-21 08:56 39.189208 -108.643192 125 6641ft 167kts
23-Oct-21 08:57 39.163623 -108.596504 125 5800ft 147kts
23-Oct-21 08:58 39.141663 -108.556496 125 5073ft 134kts
23-Oct-21 08:59 39.125443 -108.526980 124 4850ft 31kts
23-Oct-21 09:00 39.123684 -108.525229 222 4850ft 0kts
23-Oct-21 09:01 39.122667 -108.526490 231 4840ft 4kts
23-Oct-21 09:02 39.122236 -108.526889 214 4837ft 0kts

Navigation Log

Ident Type
Flight plan parsing failed, navigation log unavailable